Montezuma, NM

9:36 AM MDT on October 02, 2014 (GMT -0600)
Las Vegas Municipal | Change Station
CLOSE
Current Station
Airport
Location: Las Vegas,
Elevation: 6877 ft
Nearby Weather Stations
Active Advisory: Special Statement

Elev 6877 ft 35.65 °N, 105.14 °W | Updated 43 minutes ago

Mostly Cloudy
Mostly Cloudy
51 °F
Feels Like 51 °F
N
16
Wind Variable Wind from ENE

Today
High -- | Low -- °F
--% Chance of Precip.
Yesterday
High -- | Low -- °F
Precip. -- in
6:56 AM 6:43 PM
First Quarter, 59% visible
Pressure 29.95 in
Visibility 10.0 miles
Clouds Mostly Cloudy 6500 ft
Dew Point 31 °F
Humidity 46%
Rainfall 0.00 in
Snow Depth 1 in , 3 in , 2 in
UV 1 out of 12
Pollen 6.00 out of 12
Air Quality Not available.
Flu Activity Not available.
METAR KLVS 021453Z AUTO 06014KT 10SM BKN065 11/M01 A3018 RMK AO2 SLP140 T01061006 53023

More Conditions Fewer Conditions

Pressure 29.95 in
Visibility 10.0 miles
Clouds Mostly Cloudy 6500 ft
Dew Point 31 °F
Humidity 46%
Rainfall 0.00 in
Snow Depth 1 in , 3 in , 2 in
UV 1 out of 12
Pollen 6.00 out of 12
Air Quality Not available.
Flu Activity Not available.
METAR KLVS 021453Z AUTO 06014KT 10SM BKN065 11/M01 A3018 RMK AO2 SLP140 T01061006 53023

More Conditions Fewer Conditions

10-Day Weather Forecast

Almanac

Astronomy

Oct. 02, 2014 Rise Set
Actual Time 6:56 AM MDT 6:43 PM MDT
Civil Twilight 6:31 AM MDT 7:08 PM MDT
Nautical Twilight 6:01 AM MDT 7:38 PM MDT
Astronomical Twilight 5:32 AM MDT 8:07 PM MDT
Moon 2:41 PM MDT 12:27 AM MDT
Length of Visible Light 12h 37m
Length of Day
11h 46m
Tomorrow will be 2m 14s shorter.
First Quarter, 59% of the Moon is Illuminated
Today
First Quarter
Oct 8
Full
Oct 15
Last Quarter
Oct 23
New
Oct 30
First Quarter

Today's Extremes

State Highs State Lows

Community

WunderPhotos

Upload Photos

1,758,276 photos uploaded!

WunderBlogs® & News

Nearby

Snow Depth

Station Depth Elevation
Signal Peak 1 in 8360 ft
Wesner Springs 3 in 11120 ft
North Costilla 2 in 10600 ft
Bateman 1 in 9300 ft
Tolby 1 in 10180 ft

Earthquake Activity

City Distance Mag. Time & Date
Trinidad, Colorado 98 miles 2.9 3:55 AM MDT
2014-09-30
Minimum magnitude displayed is 2.5.

Coastal Water Temperatures

Place Temperature
No Stations Reporting

Nearby Weather Stations